Etusivu
METAR-TAF:

METAR-TAF

Lentoasemat :

Bhubaneswar, Intia

Leveyspiiri: 20-14-40N, Pituuspiiri: 85-49-04E, korkeus merenpinnasta: 45 m

Tämänhetkinen sää

Tämä raportti tehtiin 30 minuuttia sitten, kello 12.30 UTC
Tuuli 6 kn etelästä/kaakosta
Lämpötila 33°C
Kosteus 67%
Ilmanpaine 998 hPa
Näkyvyys: 4500 m
Hajanaisia pilviä 1800 ft:n korkeudessa
Hajonneita pilviä 10000 ft:n korkeudessa
usvaa,

METAR: VEBS 191230Z 16006KT 4500 HZ SCT018 BKN100 33/26 Q0998 NOSIG

Aika: 18:30 (13:00 UTC)

Sääennuste

Tämä raportti tehtiin 2 tuntia ja 0 minuuttia sitten, kello 11.00 UTC
Ennuste voimassa 19. päivästä klo 12 UTC - 19. päivään klo 21 UTC
Tuuli 6 kn etelästä
Näkyvyys: 4500 m
Hajonneita pilviä 10000 ft:n korkeudessa
usvaa,

TAF: VEBS 191100Z 1912/1921 19006KT 4500 HZ SCT18 BKN100

Säähavainnot ja -ennusteet yli 4000 lentoasemalta (METAR- ja TAF-raportit).

Käytössä olevat sääasemat on merkitty karttaan keltaisilla ja punaisilla pisteillä.

Aseta hiiri pisteen päälle nähdäksesi sääaseman nimen.

Klikkaa sitten nähdäksesi säähavainnot ja -ennusteet.

Kartan vaihtaminen: klikkaa mustalla rastilla varustettuja vihreitä pisteitä, niin voit zoomata sisään; viivalla varustettua vihreää pistettä, niin voit zoomata ulos tai vihreitä nuolia, niin pääset viereisille kartoille.


METAR-TAF: